Time;durP1;ratioP1;P1;durP2;ratioP2;P2;SDS_P1;SDS_P2;PMS_P1;PMS_P2;Temp;Humidity;BMP_temperature;BMP_pressure;BME280_temperature;BME280_humidity;BME280_pressure;Samples;Min_cycle;Max_cycle;Signal;HPM_P1;HPM_P2
2022/06/03 00:02:38;;;;;;;9.98;4.00;;;;;;;;;;5087156;28;20168;-86
2022/06/03 00:05:31;;;;;;;5.63;4.18;;;;;;;;;;5081052;28;20046;-87
2022/06/03 00:08:12;;;;;;;6.18;3.83;;;;;;;;;;5089943;28;20052;-86
2022/06/03 00:10:55;;;;;;;9.13;4.20;;;;;;;;;;5091130;28;20201;-85
2022/06/03 00:13:29;;;;;;;9.18;4.35;;;;;;;;;;5090872;28;20035;-85
2022/06/03 00:16:08;;;;;;;8.25;3.92;;;;;;;;;;5090344;28;20447;-86
2022/06/03 00:18:52;;;;;;;5.20;4.00;;;;;;;;;;5090505;28;20138;-87
2022/06/03 00:21:55;;;;;;;6.85;4.35;;;;;;;;;;5091388;28;20047;-85
2022/06/03 00:24:26;;;;;;;8.07;4.10;;;;;;;;;;5091283;28;20016;-84
2022/06/03 00:27:20;;;;;;;5.78;4.53;;;;;;;;;;5089930;28;20483;-88
2022/06/03 00:30:17;;;;;;;8.20;4.70;;;;;;;;;;5089494;28;20428;-86
2022/06/03 00:32:55;;;;;;;8.57;4.75;;;;;;;;;;5089614;28;20062;-84
2022/06/03 00:35:32;;;;;;;7.63;4.05;;;;;;;;;;5090985;28;20030;-88
2022/06/03 00:38:14;;;;;;;8.93;4.72;;;;;;;;;;5092815;28;20031;-88
2022/06/03 00:41:28;;;;;;;9.40;5.10;;;;;;;;;;5095727;28;20024;-87
2022/06/03 00:44:12;;;;;;;6.45;4.70;;;;;;;;;;5088604;28;20123;-87
2022/06/03 00:47:11;;;;;;;6.68;4.78;;;;;;;;;;5094078;28;20475;-86
2022/06/03 00:49:45;;;;;;;7.97;4.38;;;;;;;;;;5092649;28;20028;-85
2022/06/03 00:52:35;;;;;;;7.40;4.60;;;;;;;;;;5093348;28;20081;-88
2022/06/03 00:55:21;;;;;;;8.43;4.60;;;;;;;;;;5091438;28;20024;-87
2022/06/03 00:58:16;;;;;;;7.10;4.38;;;;;;;;;;5092816;28;20056;-85
2022/06/03 01:00:56;;;;;;;6.82;4.03;;;;;;;;;;5093651;28;20016;-85
2022/06/03 01:03:41;;;;;;;6.97;4.60;;;;;;;;;;5094122;28;20066;-85
2022/06/03 01:06:16;;;;;;;5.90;3.78;;;;;;;;;;5092300;28;20375;-85
2022/06/03 01:09:06;;;;;;;9.25;4.70;;;;;;;;;;5093203;28;20490;-84
2022/06/03 01:12:06;;;;;;;12.13;4.65;;;;;;;;;;5092631;28;20040;-86
2022/06/03 01:14:31;;;;;;;;;;;;;;;;;;5090123;28;20488;-86
2022/06/03 01:17:03;;;;;;;8.38;4.18;;;;;;;;;;5093278;28;19911;-86
2022/06/03 01:19:38;;;;;;;6.47;4.32;;;;;;;;;;5092573;28;20043;-85
2022/06/03 01:22:13;;;;;;;5.90;4.22;;;;;;;;;;5091266;28;20063;-85
2022/06/03 01:25:04;;;;;;;7.63;4.28;;;;;;;;;;5093152;28;20468;-86
2022/06/03 01:27:43;;;;;;;8.57;3.95;;;;;;;;;;5091576;28;20443;-85
2022/06/03 01:30:34;;;;;;;7.95;4.72;;;;;;;;;;5089610;28;20497;-88
2022/06/03 01:33:15;;;;;;;8.85;4.95;;;;;;;;;;5084254;28;20044;-87
2022/06/03 01:36:02;;;;;;;6.78;4.50;;;;;;;;;;5090895;28;20025;-86
2022/06/03 01:39:02;;;;;;;7.90;4.25;;;;;;;;;;5093003;28;20058;-86
2022/06/03 01:41:52;;;;;;;5.00;3.95;;;;;;;;;;5090673;28;20032;-85
2022/06/03 01:44:26;;;;;;;7.65;4.40;;;;;;;;;;5085405;28;20054;-86
2022/06/03 01:47:09;;;;;;;7.75;4.20;;;;;;;;;;5092593;28;20058;-86
2022/06/03 01:49:58;;;;;;;6.65;4.07;;;;;;;;;;5092684;28;20043;-86
2022/06/03 01:52:26;;;;;;;7.33;4.27;;;;;;;;;;5090214;28;20024;-84
2022/06/03 01:55:26;;;;;;;5.93;4.50;;;;;;;;;;5089685;28;20028;-86
2022/06/03 01:58:00;;;;;;;8.63;4.60;;;;;;;;;;5092023;28;20120;-86
2022/06/03 02:00:28;;;;;;;7.45;4.50;;;;;;;;;;5091727;28;20380;-88
2022/06/03 02:03:13;;;;;;;6.95;4.55;;;;;;;;;;5092148;28;20076;-85
2022/06/03 02:06:06;;;;;;;5.13;4.35;;;;;;;;;;5092977;28;20077;-86
2022/06/03 02:08:53;;;;;;;8.23;4.28;;;;;;;;;;5090084;28;20031;-85
2022/06/03 02:11:40;;;;;;;9.05;4.97;;;;;;;;;;5090618;28;20048;-85
2022/06/03 02:14:08;;;;;;;5.28;4.38;;;;;;;;;;5093224;28;20380;-85
2022/06/03 02:16:54;;;;;;;7.78;4.25;;;;;;;;;;5092106;28;20077;-85
2022/06/03 02:19:40;;;;;;;10.38;4.55;;;;;;;;;;5091441;28;20111;-84
2022/06/03 02:22:41;;;;;;;6.65;4.70;;;;;;;;;;5090278;28;20024;-85
2022/06/03 02:25:34;;;;;;;7.07;4.00;;;;;;;;;;5087314;28;20024;-86
2022/06/03 02:28:40;;;;;;;7.65;4.20;;;;;;;;;;5092413;28;20024;-85
2022/06/03 02:31:49;;;;;;;8.63;4.78;;;;;;;;;;5090643;28;20040;-85
2022/06/03 02:34:35;;;;;;;8.80;4.70;;;;;;;;;;5082576;28;20498;-84
2022/06/03 02:37:30;;;;;;;9.50;4.65;;;;;;;;;;5093021;28;20383;-84
2022/06/03 02:39:55;;;;;;;9.43;4.60;;;;;;;;;;5092199;28;20056;-83
2022/06/03 02:42:43;;;;;;;6.20;4.93;;;;;;;;;;5091786;28;20117;-85
2022/06/03 02:45:39;;;;;;;10.48;4.40;;;;;;;;;;5091234;28;20020;-84
2022/06/03 02:48:42;;;;;;;5.63;4.25;;;;;;;;;;5090079;28;20024;-84
2022/06/03 02:51:27;;;;;;;6.68;4.95;;;;;;;;;;5091552;28;20375;-85
2022/06/03 02:54:14;;;;;;;7.82;4.93;;;;;;;;;;5090563;28;20479;-86
2022/06/03 02:57:10;;;;;;;6.93;4.63;;;;;;;;;;5091135;28;20024;-84
2022/06/03 02:59:51;;;;;;;5.97;4.50;;;;;;;;;;5088087;28;20472;-86
2022/06/03 03:02:36;;;;;;;10.52;4.88;;;;;;;;;;5087957;28;20028;-85
2022/06/03 03:05:39;;;;;;;6.18;4.43;;;;;;;;;;5091958;28;20027;-85
2022/06/03 03:08:49;;;;;;;7.47;4.82;;;;;;;;;;5089683;28;20036;-86
2022/06/03 03:11:21;;;;;;;6.43;4.43;;;;;;;;;;5058858;28;20058;-86
2022/06/03 03:14:04;;;;;;;5.60;4.43;;;;;;;;;;5090259;28;20479;-85
2022/06/03 03:16:52;;;;;;;9.68;5.13;;;;;;;;;;5092518;28;20106;-87
2022/06/03 03:20:12;;;;;;;5.88;4.53;;;;;;;;;;5091884;28;20078;-86
2022/06/03 03:23:03;;;;;;;8.68;4.40;;;;;;;;;;5067507;28;20031;-87
2022/06/03 03:25:34;;;;;;;6.45;4.07;;;;;;;;;;5057664;28;20043;-85
2022/06/03 03:28:23;;;;;;;8.65;4.43;;;;;;;;;;5090129;28;20043;-85
2022/06/03 03:31:12;;;;;;;7.28;5.03;;;;;;;;;;5087714;28;20040;-87
2022/06/03 03:33:56;;;;;;;6.78;4.60;;;;;;;;;;5067812;28;20089;-88
2022/06/03 03:36:46;;;;;;;6.72;4.57;;;;;;;;;;5091806;28;20388;-89
2022/06/03 03:39:23;;;;;;;;;;;;;;;;;;5092335;28;20108;-86
2022/06/03 03:41:54;;;;;;;6.40;4.07;;;;;;;;;;5090289;28;19923;-85
2022/06/03 03:44:32;;;;;;;8.32;4.53;;;;;;;;;;5090264;28;20464;-89
2022/06/03 03:47:09;;;;;;;6.35;4.13;;;;;;;;;;5088882;28;20028;-87
2022/06/03 03:50:01;;;;;;;7.40;4.53;;;;;;;;;;5091285;28;20036;-85
2022/06/03 03:52:48;;;;;;;7.72;4.65;;;;;;;;;;5090138;28;20026;-84
2022/06/03 03:55:32;;;;;;;6.72;4.82;;;;;;;;;;5089223;28;20416;-87
2022/06/03 03:58:00;;;;;;;6.45;4.63;;;;;;;;;;5090485;28;20034;-87
2022/06/03 04:01:00;;;;;;;8.82;4.50;;;;;;;;;;5087708;28;20494;-85
2022/06/03 04:03:43;;;;;;;6.57;4.07;;;;;;;;;;5086383;28;20400;-88
2022/06/03 04:06:35;;;;;;;8.85;4.80;;;;;;;;;;5087311;28;20032;-85
2022/06/03 04:09:19;;;;;;;7.53;4.80;;;;;;;;;;5056711;28;20042;-86
2022/06/03 04:11:59;;;;;;;7.50;4.57;;;;;;;;;;5080217;28;20028;-85
2022/06/03 04:15:02;;;;;;;11.52;5.38;;;;;;;;;;5088030;28;20107;-85
2022/06/03 04:18:05;;;;;;;10.25;4.85;;;;;;;;;;5085239;28;20035;-86
2022/06/03 04:20:52;;;;;;;7.70;4.88;;;;;;;;;;5087286;28;20044;-84
2022/06/03 04:23:45;;;;;;;12.43;5.03;;;;;;;;;;5087651;28;20107;-86
2022/06/03 04:26:19;;;;;;;8.45;4.78;;;;;;;;;;5091164;28;20028;-85
2022/06/03 04:29:34;;;;;;;7.65;4.47;;;;;;;;;;5086658;28;20074;-86
2022/06/03 04:32:33;;;;;;;8.27;5.03;;;;;;;;;;5088178;28;20048;-86
2022/06/03 04:35:30;;;;;;;11.40;4.68;;;;;;;;;;5086872;28;20043;-85
2022/06/03 04:37:59;;;;;;;9.30;4.68;;;;;;;;;;5088944;28;20024;-86
2022/06/03 04:41:02;;;;;;;7.43;5.22;;;;;;;;;;5087257;28;20032;-86
2022/06/03 04:43:52;;;;;;;9.05;4.43;;;;;;;;;;5091089;28;20040;-87
2022/06/03 04:46:55;;;;;;;6.88;5.30;;;;;;;;;;5086611;28;20020;-84
2022/06/03 04:49:38;;;;;;;13.35;5.63;;;;;;;;;;5087764;28;20023;-87
2022/06/03 04:52:22;;;;;;;7.78;5.10;;;;;;;;;;5088446;28;20078;-89
2022/06/03 04:54:56;;;;;;;13.15;5.80;;;;;;;;;;5087622;28;20494;-86
2022/06/03 04:57:42;;;;;;;6.20;5.05;;;;;;;;;;5087007;28;20471;-85
2022/06/03 05:00:38;;;;;;;9.32;5.47;;;;;;;;;;5085668;28;20112;-85
2022/06/03 05:03:41;;;;;;;10.15;5.82;;;;;;;;;;5086227;28;20035;-88
2022/06/03 05:06:31;;;;;;;11.18;4.88;;;;;;;;;;5088060;28;20031;-84
2022/06/03 05:09:08;;;;;;;12.25;6.45;;;;;;;;;;5083794;28;20042;-85
2022/06/03 05:12:06;;;;;;;10.30;5.25;;;;;;;;;;5089372;28;20108;-86
2022/06/03 05:14:59;;;;;;;10.45;5.65;;;;;;;;;;5088532;28;20499;-83
2022/06/03 05:17:44;;;;;;;9.80;5.70;;;;;;;;;;5085284;28;20019;-85
2022/06/03 05:20:31;;;;;;;9.65;6.30;;;;;;;;;;5087062;28;20107;-87
2022/06/03 05:23:28;;;;;;;10.88;6.35;;;;;;;;;;5088119;28;20034;-85
2022/06/03 05:26:26;;;;;;;8.77;5.57;;;;;;;;;;5091808;28;20035;-86
2022/06/03 05:29:18;;;;;;;12.80;6.43;;;;;;;;;;5092625;28;20016;-86
2022/06/03 05:32:08;;;;;;;11.57;5.53;;;;;;;;;;5092635;28;20031;-86
2022/06/03 05:34:44;;;;;;;;;;;;;;;;;;5093882;28;20024;-88
2022/06/03 05:37:12;;;;;;;10.30;6.55;;;;;;;;;;5093211;28;19916;-85
2022/06/03 05:40:06;;;;;;;13.65;7.10;;;;;;;;;;5093623;28;20054;-86
2022/06/03 05:43:11;;;;;;;9.40;6.68;;;;;;;;;;5092111;28;20833;-85
2022/06/03 05:46:10;;;;;;;10.48;6.82;;;;;;;;;;5077287;28;20387;-87
2022/06/03 05:48:51;;;;;;;9.50;6.53;;;;;;;;;;5094338;28;20039;-85
2022/06/03 05:51:30;;;;;;;12.02;6.47;;;;;;;;;;5093377;28;20506;-86
2022/06/03 05:54:03;;;;;;;11.10;6.43;;;;;;;;;;5092881;28;20024;-86
2022/06/03 05:56:42;;;;;;;8.40;5.90;;;;;;;;;;5093178;28;20380;-85
2022/06/03 05:59:29;;;;;;;9.02;6.97;;;;;;;;;;5092874;28;20044;-84
2022/06/03 06:02:19;;;;;;;14.80;8.02;;;;;;;;;;5090151;28;20390;-88
2022/06/03 06:04:57;;;;;;;10.05;6.38;;;;;;;;;;5087725;28;20460;-86
2022/06/03 06:07:35;;;;;;;8.57;6.00;;;;;;;;;;5087987;28;20036;-85
2022/06/03 06:10:38;;;;;;;9.32;6.50;;;;;;;;;;5088279;28;20170;-87
2022/06/03 06:13:28;;;;;;;12.25;6.85;;;;;;;;;;5091405;28;20533;-88
2022/06/03 06:15:59;;;;;;;12.20;6.80;;;;;;;;;;5090382;28;20030;-86
2022/06/03 06:18:46;;;;;;;12.73;6.68;;;;;;;;;;5087994;28;20487;-87
2022/06/03 06:21:43;;;;;;;12.40;6.75;;;;;;;;;;5085116;28;20028;-83
2022/06/03 06:24:29;;;;;;;9.70;6.28;;;;;;;;;;5084506;28;20379;-86
2022/06/03 06:27:04;;;;;;;12.13;7.00;;;;;;;;;;5091734;28;20383;-85
2022/06/03 06:29:48;;;;;;;8.48;6.25;;;;;;;;;;5091316;28;20063;-83
2022/06/03 06:33:06;;;;;;;7.07;5.82;;;;;;;;;;5091848;28;20064;-85
2022/06/03 06:36:09;;;;;;;8.10;5.35;;;;;;;;;;5090727;28;20044;-86
2022/06/03 06:38:41;;;;;;;10.32;6.40;;;;;;;;;;5092349;28;20021;-85
2022/06/03 06:41:30;;;;;;;13.23;5.78;;;;;;;;;;5091799;28;20332;-83
2022/06/03 06:44:07;;;;;;;8.25;6.03;;;;;;;;;;5090286;28;20040;-83
2022/06/03 06:46:49;;;;;;;9.88;5.50;;;;;;;;;;5088614;28;20044;-84
2022/06/03 06:49:23;;;;;;;8.98;5.70;;;;;;;;;;5090132;28;20020;-83
2022/06/03 06:51:52;;;;;;;10.30;5.50;;;;;;;;;;5091033;28;20118;-84
2022/06/03 06:54:29;;;;;;;11.40;5.72;;;;;;;;;;5092881;28;20023;-86
2022/06/03 06:57:06;;;;;;;10.07;5.22;;;;;;;;;;5090475;28;20028;-84
2022/06/03 06:59:44;;;;;;;13.35;5.45;;;;;;;;;;5092079;28;20059;-85
2022/06/03 07:02:37;;;;;;;8.30;5.30;;;;;;;;;;5091325;28;20434;-83
2022/06/03 07:05:25;;;;;;;8.95;5.18;;;;;;;;;;5092956;28;20042;-85
2022/06/03 07:08:14;;;;;;;8.07;5.25;;;;;;;;;;5089709;28;20020;-86
2022/06/03 07:10:48;;;;;;;8.30;4.70;;;;;;;;;;5092381;28;20071;-85
2022/06/03 07:13:18;;;;;;;8.18;4.78;;;;;;;;;;5094170;28;20136;-84
2022/06/03 07:16:10;;;;;;;8.38;5.30;;;;;;;;;;5093183;28;20484;-87
2022/06/03 07:22:31;;;;;;;8.70;4.97;;;;;;;;;;5091074;28;20022;-84
2022/06/03 07:25:16;;;;;;;10.30;5.57;;;;;;;;;;5091570;28;20102;-84
2022/06/03 07:27:53;;;;;;;13.38;9.45;;;;;;;;;;5093020;28;20107;-86
2022/06/03 07:30:31;;;;;;;26.55;21.88;;;;;;;;;;5089721;28;20040;-85
2022/06/03 07:33:34;;;;;;;20.42;12.48;;;;;;;;;;5084892;28;20107;-85
2022/06/03 07:36:37;;;;;;;13.80;8.48;;;;;;;;;;5088832;28;20020;-85
2022/06/03 07:39:21;;;;;;;7.97;4.85;;;;;;;;;;5089847;28;20088;-85
2022/06/03 07:42:02;;;;;;;8.52;5.68;;;;;;;;;;5086916;28;20035;-85
2022/06/03 07:44:46;;;;;;;7.97;3.90;;;;;;;;;;5086623;28;20080;-86
2022/06/03 07:47:15;;;;;;;6.45;4.28;;;;;;;;;;5090104;28;20031;-86
2022/06/03 07:49:44;;;;;;;10.70;7.13;;;;;;;;;;5090311;28;20032;-85
2022/06/03 07:52:43;;;;;;;8.18;4.65;;;;;;;;;;5085100;28;20059;-86
2022/06/03 07:55:16;;;;;;;8.88;5.28;;;;;;;;;;5085011;28;20124;-89
2022/06/03 07:57:52;;;;;;;9.65;4.47;;;;;;;;;;5092739;28;20028;-87
2022/06/03 08:00:19;;;;;;;7.70;4.40;;;;;;;;;;5091640;28;20024;-88
2022/06/03 08:02:45;;;;;;;8.27;4.60;;;;;;;;;;5090586;28;20055;-84
2022/06/03 08:05:18;;;;;;;7.57;5.00;;;;;;;;;;5088316;28;20056;-86
2022/06/03 08:10:57;;;;;;;11.02;5.20;;;;;;;;;;5086933;28;20039;-87
2022/06/03 08:13:46;;;;;;;7.05;4.90;;;;;;;;;;5086311;28;20034;-86
2022/06/03 08:16:25;;;;;;;7.93;5.15;;;;;;;;;;5092531;28;20032;-88
2022/06/03 08:18:54;;;;;;;6.57;4.67;;;;;;;;;;5123047;27;20472;-85
2022/06/03 08:21:23;;;;;;;8.77;5.03;;;;;;;;;;5093471;28;20054;-86
2022/06/03 08:23:51;;;;;;;10.85;5.43;;;;;;;;;;5090815;28;20039;-87
2022/06/03 08:26:20;;;;;;;7.50;4.75;;;;;;;;;;5082404;28;20103;-85
2022/06/03 08:28:53;;;;;;;9.45;5.43;;;;;;;;;;5088102;28;20032;-84
2022/06/03 08:31:23;;;;;;;8.40;5.35;;;;;;;;;;5089314;28;20039;-84
2022/06/03 08:33:50;;;;;;;;;;;;;;;;;;5089194;28;20099;-86
2022/06/03 08:36:23;;;;;;;7.38;4.63;;;;;;;;;;5089948;28;20359;-86
2022/06/03 08:38:56;;;;;;;8.13;5.25;;;;;;;;;;5089520;28;20088;-87
2022/06/03 08:41:50;;;;;;;11.48;5.55;;;;;;;;;;5088269;28;20020;-88
2022/06/03 08:44:32;;;;;;;8.77;5.20;;;;;;;;;;5078415;28;20410;-86
2022/06/03 08:47:13;;;;;;;5.03;4.10;;;;;;;;;;5087531;28;20076;-86
2022/06/03 08:49:47;;;;;;;5.70;4.53;;;;;;;;;;5089424;28;20027;-85
2022/06/03 08:52:18;;;;;;;10.95;6.50;;;;;;;;;;5086977;28;20035;-82
2022/06/03 08:54:53;;;;;;;9.07;5.70;;;;;;;;;;5085896;28;20063;-83
2022/06/03 08:57:28;;;;;;;5.72;5.00;;;;;;;;;;5092034;28;20421;-84
2022/06/03 09:00:02;;;;;;;5.63;4.60;;;;;;;;;;5092748;28;20024;-87
2022/06/03 09:02:42;;;;;;;6.55;4.93;;;;;;;;;;5093719;28;20165;-86
2022/06/03 09:05:35;;;;;;;6.68;5.25;;;;;;;;;;5092687;28;20032;-85
2022/06/03 09:08:10;;;;;;;7.90;4.80;;;;;;;;;;5091010;28;20034;-86
2022/06/03 09:10:47;;;;;;;5.80;4.38;;;;;;;;;;5091971;28;20024;-87
2022/06/03 09:13:21;;;;;;;12.35;6.15;;;;;;;;;;5094260;28;20483;-85
2022/06/03 09:15:48;;;;;;;9.05;4.95;;;;;;;;;;5091207;28;20035;-85
2022/06/03 09:18:19;;;;;;;9.95;5.15;;;;;;;;;;5093767;28;20028;-85
2022/06/03 09:20:52;;;;;;;7.15;4.75;;;;;;;;;;5094092;28;20024;-90
2022/06/03 09:23:20;;;;;;;10.25;4.80;;;;;;;;;;5093601;28;20055;-87
2022/06/03 09:25:58;;;;;;;7.00;5.07;;;;;;;;;;5093512;28;20024;-83
2022/06/03 09:28:36;;;;;;;5.40;4.53;;;;;;;;;;5092335;28;20038;-83
2022/06/03 09:31:13;;;;;;;6.72;4.22;;;;;;;;;;5089712;28;20400;-88
2022/06/03 09:33:40;;;;;;;5.60;4.20;;;;;;;;;;5094340;28;20027;-86
2022/06/03 09:36:18;;;;;;;7.22;4.95;;;;;;;;;;5092914;28;20038;-89
2022/06/03 09:39:14;;;;;;;6.38;4.63;;;;;;;;;;5093816;28;20056;-87
2022/06/03 09:41:42;;;;;;;6.72;4.60;;;;;;;;;;5080436;28;20047;-86
2022/06/03 09:44:12;;;;;;;7.27;4.43;;;;;;;;;;5092763;28;20030;-85
2022/06/03 09:46:39;;;;;;;5.45;4.30;;;;;;;;;;5094194;28;20024;-86
2022/06/03 09:49:06;;;;;;;9.95;4.40;;;;;;;;;;5092244;28;20024;-83
2022/06/03 09:51:55;;;;;;;7.53;4.85;;;;;;;;;;5093320;28;20035;-87
2022/06/03 09:54:28;;;;;;;8.57;5.45;;;;;;;;;;5094434;28;20365;-86
2022/06/03 09:56:58;;;;;;;6.47;4.72;;;;;;;;;;5092968;28;20391;-88
2022/06/03 09:59:25;;;;;;;5.82;4.25;;;;;;;;;;5094150;28;20104;-90
2022/06/03 10:01:51;;;;;;;5.93;4.15;;;;;;;;;;5091458;28;20115;-86
2022/06/03 10:04:18;;;;;;;9.80;4.63;;;;;;;;;;5093041;28;20031;-90
2022/06/03 10:06:47;;;;;;;5.63;4.50;;;;;;;;;;5089696;28;20495;-86
2022/06/03 10:17:49;;;;;;;5.72;3.53;;;;;;;;;;5091082;28;20070;-85
2022/06/03 10:20:15;;;;;;;7.28;4.53;;;;;;;;;;5092424;28;20028;-86
2022/06/03 10:22:41;;;;;;;5.95;4.28;;;;;;;;;;5091139;28;20682;-89
2022/06/03 10:25:07;;;;;;;5.65;4.78;;;;;;;;;;5093538;28;20036;-85
2022/06/03 10:27:33;;;;;;;8.10;4.28;;;;;;;;;;5093388;28;20035;-86
2022/06/03 10:29:59;;;;;;;4.43;3.50;;;;;;;;;;5093758;28;20131;-87
2022/06/03 10:32:26;;;;;;;7.43;4.53;;;;;;;;;;5093543;28;20883;-84
2022/06/03 10:34:56;;;;;;;6.40;3.92;;;;;;;;;;5092477;28;20032;-86
2022/06/03 10:37:25;;;;;;;9.48;4.63;;;;;;;;;;5093570;28;20056;-87
2022/06/03 10:39:54;;;;;;;6.68;3.95;;;;;;;;;;5092503;28;20406;-85
2022/06/03 10:42:22;;;;;;;8.25;5.10;;;;;;;;;;5092009;28;20433;-88
2022/06/03 10:44:50;;;;;;;5.70;4.35;;;;;;;;;;5093414;28;20024;-87
2022/06/03 10:47:19;;;;;;;8.47;4.20;;;;;;;;;;5093246;28;20028;-82
2022/06/03 10:49:54;;;;;;;7.95;4.30;;;;;;;;;;5092064;28;20032;-87
2022/06/03 11:01:10;;;;;;;4.75;4.25;;;;;;;;;;5091761;28;20039;-85
2022/06/03 11:03:38;;;;;;;;;;;;;;;;;;5090549;28;20148;-86
2022/06/03 11:06:07;;;;;;;9.70;4.80;;;;;;;;;;5092846;28;19915;-85
2022/06/03 11:08:49;;;;;;;9.63;5.13;;;;;;;;;;5090903;28;20027;-84
2022/06/03 11:11:30;;;;;;;7.63;4.60;;;;;;;;;;5092682;28;20032;-85
2022/06/03 11:13:56;;;;;;;6.20;4.90;;;;;;;;;;5091175;28;20090;-87
2022/06/03 11:16:24;;;;;;;6.18;4.50;;;;;;;;;;5091216;28;20478;-84
2022/06/03 11:18:50;;;;;;;7.72;4.50;;;;;;;;;;5091164;28;20051;-88
2022/06/03 11:21:23;;;;;;;7.55;4.57;;;;;;;;;;5090495;28;20012;-85
2022/06/03 11:23:49;;;;;;;5.07;4.25;;;;;;;;;;5092379;28;20170;-88
2022/06/03 11:26:15;;;;;;;7.63;4.60;;;;;;;;;;5089695;28;20089;-87
2022/06/03 11:28:56;;;;;;;8.77;4.72;;;;;;;;;;5091102;28;20137;-85
2022/06/03 11:31:27;;;;;;;5.40;3.97;;;;;;;;;;5091471;28;20020;-86
2022/06/03 11:34:24;;;;;;;5.22;4.03;;;;;;;;;;5092446;28;20024;-86
2022/06/03 11:36:56;;;;;;;6.20;4.35;;;;;;;;;;5059947;28;20127;-85
2022/06/03 11:39:53;;;;;;;5.32;4.03;;;;;;;;;;5092132;28;20024;-84
2022/06/03 11:42:31;;;;;;;6.55;4.18;;;;;;;;;;5092028;28;20085;-86
2022/06/03 11:45:17;;;;;;;6.32;4.35;;;;;;;;;;5089372;28;20032;-87
2022/06/03 11:48:18;;;;;;;5.95;4.00;;;;;;;;;;5091797;28;20032;-86
2022/06/03 11:50:44;;;;;;;7.80;4.55;;;;;;;;;;5087229;28;20495;-89
2022/06/03 11:53:09;;;;;;;5.07;3.75;;;;;;;;;;5091478;28;20047;-85
2022/06/03 11:55:38;;;;;;;4.53;3.75;;;;;;;;;;5091722;28;20028;-85
2022/06/03 11:58:08;;;;;;;7.03;4.18;;;;;;;;;;5091714;28;20020;-87
2022/06/03 12:00:39;;;;;;;9.27;4.32;;;;;;;;;;5089005;28;20039;-86
2022/06/03 12:03:40;;;;;;;4.72;3.55;;;;;;;;;;5090356;28;20028;-85
2022/06/03 12:06:29;;;;;;;8.43;4.53;;;;;;;;;;5092189;28;20443;-88
2022/06/03 12:09:21;;;;;;;6.47;3.80;;;;;;;;;;5089353;28;20028;-88
2022/06/03 12:14:45;;;;;;;6.95;3.88;;;;;;;;;;5090141;28;20035;-88
2022/06/03 12:17:11;;;;;;;6.22;3.63;;;;;;;;;;5090260;28;20028;-87
2022/06/03 12:19:44;;;;;;;6.47;3.70;;;;;;;;;;5092319;28;20464;-86
2022/06/03 12:22:20;;;;;;;6.20;3.95;;;;;;;;;;5091719;28;20043;-84
2022/06/03 12:24:52;;;;;;;4.25;3.70;;;;;;;;;;5089240;28;20468;-87
2022/06/03 12:27:39;;;;;;;6.95;4.07;;;;;;;;;;5088504;28;20023;-88
2022/06/03 12:30:26;;;;;;;6.78;4.00;;;;;;;;;;5091369;28;20039;-86
2022/06/03 12:32:57;;;;;;;4.93;3.75;;;;;;;;;;5090304;28;20024;-86
2022/06/03 12:35:42;;;;;;;8.18;4.40;;;;;;;;;;5089995;28;20016;-87
2022/06/03 12:38:19;;;;;;;5.22;3.80;;;;;;;;;;5088578;28;20388;-89
2022/06/03 12:40:57;;;;;;;7.40;4.38;;;;;;;;;;5089896;28;20049;-88
2022/06/03 12:43:28;;;;;;;4.57;3.60;;;;;;;;;;5091348;28;20035;-86
2022/06/03 12:46:05;;;;;;;4.95;3.33;;;;;;;;;;5091560;28;20028;-88
2022/06/03 12:48:44;;;;;;;5.90;3.88;;;;;;;;;;5089851;28;20424;-88
2022/06/03 12:51:31;;;;;;;5.50;3.22;;;;;;;;;;5091159;28;20050;-85
2022/06/03 12:54:14;;;;;;;3.80;3.00;;;;;;;;;;5089037;28;20024;-87
2022/06/03 12:56:51;;;;;;;4.05;3.47;;;;;;;;;;5090159;28;20024;-86
2022/06/03 12:59:41;;;;;;;6.50;3.33;;;;;;;;;;5091041;28;20483;-86
2022/06/03 13:02:18;;;;;;;7.72;3.75;;;;;;;;;;5091222;28;20425;-85
2022/06/03 13:05:05;;;;;;;4.70;3.55;;;;;;;;;;5090442;28;20024;-88
2022/06/03 13:07:34;;;;;;;6.32;3.55;;;;;;;;;;5089548;28;20499;-86
2022/06/03 13:10:02;;;;;;;4.97;3.28;;;;;;;;;;5091139;28;20527;-89
2022/06/03 13:12:43;;;;;;;6.22;3.67;;;;;;;;;;5090665;28;20142;-86
2022/06/03 13:15:20;;;;;;;4.18;3.10;;;;;;;;;;5090951;28;20059;-86
2022/06/03 13:18:09;;;;;;;6.22;3.67;;;;;;;;;;5089915;28;20028;-84
2022/06/03 13:21:06;;;;;;;6.40;3.63;;;;;;;;;;5091098;28;20027;-87
2022/06/03 13:23:36;;;;;;;4.10;3.55;;;;;;;;;;5090036;28;20043;-87
2022/06/03 13:26:22;;;;;;;7.10;3.50;;;;;;;;;;5089973;28;20020;-86
2022/06/03 13:28:53;;;;;;;4.78;3.67;;;;;;;;;;5090350;28;20024;-89
2022/06/03 13:31:47;;;;;;;10.13;4.18;;;;;;;;;;5090623;28;20517;-86
2022/06/03 13:34:16;;;;;;;5.30;3.80;;;;;;;;;;5086875;28;20081;-90
2022/06/03 13:36:47;;;;;;;6.22;3.80;;;;;;;;;;5090039;28;20077;-87
2022/06/03 13:39:32;;;;;;;5.35;3.63;;;;;;;;;;5089758;28;20032;-84
2022/06/03 13:45:04;;;;;;;4.78;3.28;;;;;;;;;;5094110;28;20478;-87
2022/06/03 13:47:55;;;;;;;4.10;3.45;;;;;;;;;;5096863;28;20028;-87
2022/06/03 13:50:28;;;;;;;6.32;3.78;;;;;;;;;;5093008;28;20031;-85
2022/06/03 13:52:58;;;;;;;5.10;3.63;;;;;;;;;;5090180;28;20110;-91
2022/06/03 13:55:23;;;;;;;;;;;;;;;;;;5096111;28;20020;-86
2022/06/03 13:57:53;;;;;;;7.03;3.75;;;;;;;;;;5095164;28;19912;-84
2022/06/03 14:00:24;;;;;;;5.47;3.67;;;;;;;;;;5093636;28;20106;-83
2022/06/03 14:03:05;;;;;;;5.85;3.80;;;;;;;;;;5089121;28;20032;-85
2022/06/03 14:05:36;;;;;;;6.45;4.18;;;;;;;;;;5093748;28;20027;-88
2022/06/03 14:08:40;;;;;;;4.80;4.28;;;;;;;;;;5092944;28;20051;-86
2022/06/03 14:11:09;;;;;;;10.05;4.18;;;;;;;;;;5084217;28;20032;-88
2022/06/03 14:13:55;;;;;;;6.68;4.00;;;;;;;;;;5092031;28;20376;-86
2022/06/03 14:16:39;;;;;;;8.82;4.38;;;;;;;;;;5091653;28;20036;-85
2022/06/03 14:19:07;;;;;;;6.25;4.30;;;;;;;;;;5090906;28;20033;-83
2022/06/03 14:21:42;;;;;;;5.10;4.25;;;;;;;;;;5090205;28;20446;-84
2022/06/03 14:24:26;;;;;;;4.50;3.92;;;;;;;;;;5090099;28;20032;-86
2022/06/03 14:27:04;;;;;;;5.45;4.70;;;;;;;;;;5091875;28;20047;-86
2022/06/03 14:29:45;;;;;;;7.13;5.10;;;;;;;;;;5087167;28;20052;-86
2022/06/03 14:32:13;;;;;;;6.45;4.20;;;;;;;;;;5090640;28;20032;-85
2022/06/03 14:34:43;;;;;;;5.03;4.53;;;;;;;;;;5091815;28;20124;-83
2022/06/03 14:37:23;;;;;;;6.47;4.50;;;;;;;;;;5088930;28;20534;-82
2022/06/03 14:39:51;;;;;;;7.63;4.55;;;;;;;;;;5086864;28;20028;-82
2022/06/03 14:42:29;;;;;;;9.10;4.18;;;;;;;;;;5084135;28;20046;-82
2022/06/03 14:44:55;;;;;;;5.60;4.65;;;;;;;;;;5086571;28;20023;-84
2022/06/03 14:47:30;;;;;;;8.27;4.65;;;;;;;;;;5089244;28;20463;-83
2022/06/03 14:50:12;;;;;;;5.82;4.57;;;;;;;;;;5087189;28;20065;-82
2022/06/03 14:52:43;;;;;;;7.45;4.45;;;;;;;;;;5090630;28;20047;-82
2022/06/03 14:55:15;;;;;;;5.40;4.68;;;;;;;;;;5086623;28;20054;-82
2022/06/03 14:57:48;;;;;;;5.75;4.50;;;;;;;;;;5090275;28;20425;-83
2022/06/03 15:00:19;;;;;;;8.10;5.32;;;;;;;;;;5086891;28;20042;-83
2022/06/03 15:02:56;;;;;;;8.07;5.13;;;;;;;;;;5084093;28;20039;-82
2022/06/03 15:05:29;;;;;;;9.45;5.25;;;;;;;;;;5087387;28;20035;-82
2022/06/03 15:08:09;;;;;;;5.95;4.97;;;;;;;;;;5083804;28;20480;-81
2022/06/03 15:10:36;;;;;;;8.25;5.68;;;;;;;;;;5091020;28;20078;-85
2022/06/03 15:13:01;;;;;;;9.60;5.28;;;;;;;;;;5088541;28;20027;-85
2022/06/03 15:15:32;;;;;;;9.63;4.93;;;;;;;;;;5085916;28;20031;-84
2022/06/03 15:18:16;;;;;;;8.52;5.20;;;;;;;;;;5089607;28;20024;-85
2022/06/03 15:20:55;;;;;;;7.53;4.82;;;;;;;;;;5085493;28;20028;-84
2022/06/03 15:23:24;;;;;;;5.50;4.32;;;;;;;;;;5088279;28;20042;-83
2022/06/03 15:25:54;;;;;;;8.88;4.95;;;;;;;;;;5085391;28;20042;-83
2022/06/03 15:28:20;;;;;;;;;;;;;;;;;;5086011;28;20054;-83
2022/06/03 15:30:59;;;;;;;7.03;4.97;;;;;;;;;;5091505;28;19916;-82
2022/06/03 15:33:25;;;;;;;8.07;4.75;;;;;;;;;;5087789;28;20020;-83
2022/06/03 15:36:19;;;;;;;6.30;5.03;;;;;;;;;;5087101;28;20489;-82
2022/06/03 15:38:48;;;;;;;6.22;4.90;;;;;;;;;;5087173;28;20024;-82
2022/06/03 15:41:23;;;;;;;7.70;4.57;;;;;;;;;;5084903;28;20028;-82
2022/06/03 15:43:54;;;;;;;9.32;5.07;;;;;;;;;;5086258;28;20546;-81
2022/06/03 15:46:25;;;;;;;10.30;5.30;;;;;;;;;;5085699;28;20059;-82
2022/06/03 15:48:54;;;;;;;8.27;4.30;;;;;;;;;;5080762;28;20457;-82
2022/06/03 15:51:20;;;;;;;5.60;4.57;;;;;;;;;;5081982;28;20464;-82
2022/06/03 15:53:56;;;;;;;7.28;4.60;;;;;;;;;;5085906;28;20028;-84
2022/06/03 15:56:33;;;;;;;5.15;4.63;;;;;;;;;;5085964;28;20429;-81
2022/06/03 15:59:09;;;;;;;7.57;4.43;;;;;;;;;;5087450;28;20498;-80
2022/06/03 16:01:46;;;;;;;5.80;4.43;;;;;;;;;;5083910;28;20365;-84
2022/06/03 16:04:20;;;;;;;5.72;4.43;;;;;;;;;;5086010;28;20115;-82
2022/06/03 16:07:12;;;;;;;6.00;4.88;;;;;;;;;;5087315;28;20024;-82
2022/06/03 16:09:51;;;;;;;6.32;5.05;;;;;;;;;;5079034;28;20032;-81
2022/06/03 16:12:56;;;;;;;8.27;5.40;;;;;;;;;;5085203;28;20102;-84
2022/06/03 16:15:21;;;;;;;7.40;4.63;;;;;;;;;;5074776;28;20098;-83
2022/06/03 16:18:14;;;;;;;6.60;5.05;;;;;;;;;;5084942;28;20040;-82
2022/06/03 16:20:50;;;;;;;7.82;5.05;;;;;;;;;;5089759;28;20159;-84
2022/06/03 16:23:42;;;;;;;7.88;4.75;;;;;;;;;;5081260;28;20032;-84
2022/06/03 16:26:23;;;;;;;6.25;5.28;;;;;;;;;;5087332;28;20084;-83
2022/06/03 16:28:51;;;;;;;7.38;5.65;;;;;;;;;;5084013;28;20024;-83
2022/06/03 16:31:21;;;;;;;7.85;5.90;;;;;;;;;;5091756;28;20114;-82
2022/06/03 16:33:46;;;;;;;7.20;5.97;;;;;;;;;;5091443;28;20081;-87